Time;durP1;ratioP1;P1;durP2;ratioP2;P2;SDS_P1;SDS_P2;PMS_P1;PMS_P2;Temp;Humidity;BMP_temperature;BMP_pressure;BME280_temperature;BME280_humidity;BME280_pressure;Samples;Min_cycle;Max_cycle;Signal;HPM_P1;HPM_P2
2022/01/21 00:00:27;;;;;;;;;83.50;76.25;;;;;;;;5018705;28;51106;-47
2022/01/21 00:03:16;;;;;;;;;90.00;78.00;;;;;;;;5013736;28;51116;-49
2022/01/21 00:06:08;;;;;;;;;93.00;80.50;;;;;;;;5018146;28;52308;-50
2022/01/21 00:09:13;;;;;;;;;95.50;83.75;;;;;;;;5014479;28;51228;-49
2022/01/21 00:12:00;;;;;;;;;92.75;80.75;;;;;;;;5018454;28;51127;-48
2022/01/21 00:14:47;;;;;;;;;93.00;83.50;;;;;;;;5018789;28;51129;-48
2022/01/21 00:17:32;;;;;;;;;110.00;97.00;;;;;;;;5017731;28;51475;-49
2022/01/21 00:32:32;;;;;;;;;110.50;95.00;;;;;;;;5016023;28;52102;-48
2022/01/21 00:35:28;;;;;;;;;111.50;102.00;;;;;;;;5017958;28;51089;-45
2022/01/21 00:38:15;;;;;;;;;132.00;115.25;;;;;;;;5001974;28;51473;-46
2022/01/21 00:41:04;;;;;;;;;157.00;138.50;;;;;;;;5015694;28;51131;-46
2022/01/21 00:43:49;;;;;;;;;172.00;155.00;;;;;;;;5018059;28;51167;-47
2022/01/21 00:46:34;;;;;;;;;155.50;138.50;;;;;;;;5016963;28;51113;-48
2022/01/21 00:49:20;;;;;;;;;145.75;129.75;;;;;;;;5013012;28;51358;-50
2022/01/21 00:52:11;;;;;;;;;148.75;133.00;;;;;;;;5018092;28;51220;-51
2022/01/21 00:54:55;;;;;;;;;157.25;139.00;;;;;;;;5014968;28;51269;-51
2022/01/21 00:57:41;;;;;;;;;149.75;130.00;;;;;;;;5017839;28;51082;-51
2022/01/21 01:00:25;;;;;;;;;147.25;131.00;;;;;;;;5016387;28;51025;-52
2022/01/21 01:03:13;;;;;;;;;135.00;125.25;;;;;;;;5016176;28;51098;-52
2022/01/21 01:06:06;;;;;;;;;154.75;138.50;;;;;;;;5017606;28;51394;-45
2022/01/21 01:09:15;;;;;;;;;153.50;132.00;;;;;;;;5013221;28;51160;-45
2022/01/21 01:21:42;;;;;;;;;155.00;138.75;;;;;;;;5014465;28;51199;-46
2022/01/21 01:27:42;;;;;;;;;152.00;129.75;;;;;;;;5013358;28;51109;-47
2022/01/21 01:30:28;;;;;;;;;154.50;139.00;;;;;;;;5017865;28;51556;-47
2022/01/21 01:33:22;;;;;;;;;155.75;130.25;;;;;;;;5018005;28;51136;-51
2022/01/21 01:36:10;;;;;;;;;143.50;129.50;;;;;;;;5014854;28;51213;-47
2022/01/21 01:39:11;;;;;;;;;131.25;117.75;;;;;;;;5018014;28;51203;-46
2022/01/21 01:51:30;;;;;;;;;178.75;149.25;;;;;;;;5014205;28;51248;-44
2022/01/21 01:54:46;;;;;;;;;174.50;157.25;;;;;;;;5017840;28;51026;-45
2022/01/21 01:57:32;;;;;;;;;164.75;134.25;;;;;;;;5017863;28;51109;-45
2022/01/21 02:00:22;;;;;;;;;179.00;155.50;;;;;;;;5015244;28;51200;-45
2022/01/21 02:03:19;;;;;;;;;164.25;145.25;;;;;;;;5011992;28;52462;-46
2022/01/21 02:06:12;;;;;;;;;167.25;149.25;;;;;;;;5018372;28;51119;-44
2022/01/21 02:09:32;;;;;;;;;152.00;132.00;;;;;;;;5020942;28;51101;-45
2022/01/21 02:12:17;;;;;;;;;164.00;143.00;;;;;;;;5018115;28;52576;-46
2022/01/21 02:15:02;;;;;;;;;141.75;120.25;;;;;;;;5021017;28;51143;-45
2022/01/21 02:23:56;;;;;;;;;147.50;125.00;;;;;;;;5017370;28;51192;-50
2022/01/21 02:26:42;;;;;;;;;138.25;121.00;;;;;;;;5021184;28;51193;-46
2022/01/21 02:29:30;;;;;;;;;141.25;125.25;;;;;;;;5021600;28;51477;-45
2022/01/21 02:32:20;;;;;;;;;144.00;121.50;;;;;;;;5021086;28;51168;-47
2022/01/21 02:35:12;;;;;;;;;135.00;115.50;;;;;;;;5017793;28;51461;-46
2022/01/21 02:37:58;;;;;;;;;146.00;128.75;;;;;;;;5021209;28;51190;-45
2022/01/21 02:40:43;;;;;;;;;135.50;116.25;;;;;;;;5021653;28;51168;-46
2022/01/21 02:43:31;;;;;;;;;131.00;116.75;;;;;;;;5020319;28;51065;-45
2022/01/21 02:46:16;;;;;;;;;141.00;123.75;;;;;;;;5019292;28;51065;-47
2022/01/21 02:49:03;;;;;;;;;134.00;112.00;;;;;;;;5018665;28;51099;-46
2022/01/21 02:51:48;;;;;;;;;134.50;118.75;;;;;;;;5021393;28;51172;-45
2022/01/21 02:54:36;;;;;;;;;135.75;120.50;;;;;;;;5020255;28;51159;-46
2022/01/21 02:57:21;;;;;;;;;136.00;113.00;;;;;;;;5020150;28;51271;-46
2022/01/21 03:00:16;;;;;;;;;125.25;106.75;;;;;;;;5005670;28;51140;-46
2022/01/21 03:03:21;;;;;;;;;140.50;115.75;;;;;;;;5015628;28;51479;-48
2022/01/21 03:06:08;;;;;;;;;139.25;115.50;;;;;;;;5020843;28;51186;-47
2022/01/21 03:08:54;;;;;;;;;143.00;128.00;;;;;;;;5020725;28;51149;-45
2022/01/21 03:11:44;;;;;;;;;140.00;114.25;;;;;;;;5020848;28;51145;-47
2022/01/21 03:14:30;;;;;;;;;129.75;118.50;;;;;;;;5020882;28;51557;-44
2022/01/21 03:17:16;;;;;;;;;134.25;111.25;;;;;;;;5020119;28;51124;-45
2022/01/21 03:20:02;;;;;;;;;144.00;126.25;;;;;;;;5020521;28;51476;-46
2022/01/21 03:22:50;;;;;;;;;142.50;123.50;;;;;;;;5020781;28;51141;-45
2022/01/21 03:25:35;;;;;;;;;135.75;121.00;;;;;;;;5005678;28;52058;-45
2022/01/21 03:28:20;;;;;;;;;135.00;118.00;;;;;;;;5020144;28;51097;-46
2022/01/21 03:31:04;;;;;;;;;144.00;122.75;;;;;;;;5019855;28;51150;-46
2022/01/21 03:33:59;;;;;;;;;138.00;123.75;;;;;;;;5018733;28;51186;-45
2022/01/21 03:36:45;;;;;;;;;140.25;126.25;;;;;;;;5020640;28;51166;-48
2022/01/21 03:39:33;;;;;;;;;131.50;114.75;;;;;;;;5019922;28;51444;-44
2022/01/21 03:42:20;;;;;;;;;129.00;116.75;;;;;;;;5020214;28;51152;-49
2022/01/21 03:45:05;;;;;;;;;124.00;105.25;;;;;;;;5019942;28;51050;-46
2022/01/21 03:47:53;;;;;;;;;155.50;131.25;;;;;;;;5020053;28;51151;-45
2022/01/21 03:50:41;;;;;;;;;135.00;124.25;;;;;;;;5019675;28;51460;-47
2022/01/21 03:53:25;;;;;;;;;153.75;133.50;;;;;;;;5019451;28;51070;-45
2022/01/21 03:56:10;;;;;;;;;151.25;133.00;;;;;;;;5019905;28;51256;-45
2022/01/21 03:58:58;;;;;;;;;156.00;131.00;;;;;;;;5019665;28;51120;-46
2022/01/21 04:01:44;;;;;;;;;142.75;125.50;;;;;;;;5005063;28;51122;-46
2022/01/21 04:04:30;;;;;;;;;148.25;135.75;;;;;;;;5015195;28;51462;-46
2022/01/21 04:07:15;;;;;;;;;141.75;128.00;;;;;;;;5019442;28;51153;-47
2022/01/21 04:10:03;;;;;;;;;150.00;127.75;;;;;;;;5019156;28;51042;-45
2022/01/21 04:12:58;;;;;;;;;153.25;136.00;;;;;;;;5019367;28;51182;-47
2022/01/21 04:15:47;;;;;;;;;162.75;137.75;;;;;;;;5019153;28;51368;-47
2022/01/21 04:18:55;;;;;;;;;138.00;128.00;;;;;;;;5019216;28;51121;-47
2022/01/21 04:21:50;;;;;;;;;167.00;142.25;;;;;;;;5019167;28;51263;-45
2022/01/21 04:24:34;;;;;;;;;159.25;135.00;;;;;;;;5018702;28;51172;-45
2022/01/21 04:27:21;;;;;;;;;137.75;121.50;;;;;;;;5019504;28;51153;-45
2022/01/21 04:30:09;;;;;;;;;161.50;138.75;;;;;;;;5018340;28;51370;-45
2022/01/21 04:32:55;;;;;;;;;160.75;140.25;;;;;;;;4990116;28;51070;-46
2022/01/21 04:35:41;;;;;;;;;164.50;143.50;;;;;;;;5018755;28;51286;-47
2022/01/21 04:38:27;;;;;;;;;162.50;142.75;;;;;;;;5019244;28;51116;-46
2022/01/21 04:47:20;;;;;;;;;176.00;150.00;;;;;;;;5018704;28;51175;-45
2022/01/21 04:50:13;;;;;;;;;169.50;147.25;;;;;;;;5018601;28;51093;-46
2022/01/21 04:52:57;;;;;;;;;180.00;153.50;;;;;;;;5018862;28;51101;-46
2022/01/21 04:55:44;;;;;;;;;166.50;155.50;;;;;;;;5018529;28;51453;-46
2022/01/21 04:58:29;;;;;;;;;165.25;146.50;;;;;;;;5017414;28;51163;-45
2022/01/21 05:01:24;;;;;;;;;167.00;145.75;;;;;;;;5010154;28;51248;-45
2022/01/21 05:04:18;;;;;;;;;156.75;136.75;;;;;;;;5017648;28;51145;-45
2022/01/21 05:07:22;;;;;;;;;170.50;146.50;;;;;;;;5018372;28;52019;-45
2022/01/21 05:10:07;;;;;;;;;177.75;147.50;;;;;;;;5018960;28;51080;-45
2022/01/21 05:12:53;;;;;;;;;187.75;164.75;;;;;;;;5018450;28;51120;-46
2022/01/21 05:16:10;;;;;;;;;177.50;157.50;;;;;;;;5018431;28;51085;-45
2022/01/21 05:18:55;;;;;;;;;175.75;147.50;;;;;;;;5018603;28;51114;-45
2022/01/21 05:21:39;;;;;;;;;156.75;139.25;;;;;;;;5017397;28;51236;-45
2022/01/21 05:24:28;;;;;;;;;180.25;153.75;;;;;;;;5018166;28;52601;-45
2022/01/21 05:27:14;;;;;;;;;167.00;147.50;;;;;;;;5017768;28;51205;-45
2022/01/21 05:30:02;;;;;;;;;167.25;145.25;;;;;;;;5017285;28;51213;-47
2022/01/21 05:32:46;;;;;;;;;159.50;136.25;;;;;;;;5018033;28;51159;-47
2022/01/21 05:35:34;;;;;;;;;167.75;144.00;;;;;;;;5016458;28;51102;-46
2022/01/21 05:38:19;;;;;;;;;158.00;140.50;;;;;;;;5017374;28;51327;-42
2022/01/21 05:41:24;;;;;;;;;164.25;139.00;;;;;;;;5020633;28;51494;-42
2022/01/21 05:46:23;;;;;;;;;154.75;133.00;;;;;;;;5021661;28;51085;-42
2022/01/21 05:47:20;;;;;;;;;162.50;138.25;;;;;;;;5017421;28;51084;-46
2022/01/21 05:50:11;;;;;;;;;160.50;134.50;;;;;;;;5022132;28;51098;-42
2022/01/21 05:53:10;;;;;;;;;178.00;147.00;;;;;;;;5021548;28;51081;-42
2022/01/21 05:56:12;;;;;;;;;161.75;142.25;;;;;;;;5021955;28;51176;-42
2022/01/21 05:58:57;;;;;;;;;155.50;139.00;;;;;;;;5006420;28;51565;-42
2022/01/21 06:01:52;;;;;;;;;170.75;146.00;;;;;;;;5021854;28;51136;-42
2022/01/21 06:04:59;;;;;;;;;176.00;151.00;;;;;;;;5022114;28;51373;-42
2022/01/21 06:07:59;;;;;;;;;169.00;144.25;;;;;;;;5021538;28;51263;-42
2022/01/21 06:10:50;;;;;;;;;173.50;149.00;;;;;;;;5021999;28;51493;-42
2022/01/21 06:13:48;;;;;;;;;169.75;156.50;;;;;;;;5021532;28;51093;-42
2022/01/21 06:16:38;;;;;;;;;183.25;157.50;;;;;;;;5022109;28;51123;-42
2022/01/21 06:19:26;;;;;;;;;185.00;161.25;;;;;;;;5021951;28;51038;-43
2022/01/21 06:22:12;;;;;;;;;171.50;152.00;;;;;;;;5021989;28;51077;-42
2022/01/21 06:25:00;;;;;;;;;184.75;166.25;;;;;;;;5021215;28;51172;-42
2022/01/21 06:28:05;;;;;;;;;182.00;157.25;;;;;;;;5021311;28;51140;-42
2022/01/21 06:30:50;;;;;;;;;183.75;164.00;;;;;;;;5021759;28;51299;-43
2022/01/21 06:33:38;;;;;;;;;176.25;153.00;;;;;;;;5024582;28;51164;-43
2022/01/21 06:36:28;;;;;;;;;183.25;164.25;;;;;;;;5022030;28;51065;-43
2022/01/21 06:39:13;;;;;;;;;185.00;153.75;;;;;;;;5014441;28;51027;-42
2022/01/21 06:41:58;;;;;;;;;184.25;156.25;;;;;;;;5021124;28;51192;-42
2022/01/21 06:44:56;;;;;;;;;185.00;163.25;;;;;;;;5021274;28;51082;-44
2022/01/21 06:47:59;;;;;;;;;186.00;156.50;;;;;;;;5021519;28;51062;-42
2022/01/21 06:51:04;;;;;;;;;169.75;138.50;;;;;;;;5020696;28;51167;-42
2022/01/21 06:53:53;;;;;;;;;174.75;151.50;;;;;;;;5021274;28;51372;-42
2022/01/21 06:56:41;;;;;;;;;196.00;170.00;;;;;;;;5015790;28;51196;-43
2022/01/21 06:59:49;;;;;;;;;170.25;153.75;;;;;;;;5020073;28;51593;-43
2022/01/21 07:02:56;;;;;;;;;194.00;164.50;;;;;;;;5021021;28;51074;-42
2022/01/21 07:05:49;;;;;;;;;162.00;136.75;;;;;;;;5021183;28;51537;-43
2022/01/21 07:08:43;;;;;;;;;153.75;132.75;;;;;;;;5020897;28;51050;-42
2022/01/21 07:11:28;;;;;;;;;148.75;124.50;;;;;;;;5023839;28;51159;-43
2022/01/21 07:14:17;;;;;;;;;163.25;144.25;;;;;;;;5020893;28;51087;-43
2022/01/21 07:17:03;;;;;;;;;158.50;140.75;;;;;;;;5021517;28;51569;-43
2022/01/21 07:19:48;;;;;;;;;154.25;132.50;;;;;;;;5020448;28;51204;-43
2022/01/21 07:22:33;;;;;;;;;154.25;132.75;;;;;;;;5020645;28;51408;-43
2022/01/21 07:25:19;;;;;;;;;151.75;130.50;;;;;;;;5018976;28;51097;-43
2022/01/21 07:28:37;;;;;;;;;132.75;126.25;;;;;;;;5019591;28;51053;-43
2022/01/21 07:31:23;;;;;;;;;144.00;121.50;;;;;;;;5020611;28;51582;-43
2022/01/21 07:34:08;;;;;;;;;154.25;135.25;;;;;;;;5020388;28;51125;-42
2022/01/21 07:36:54;;;;;;;;;138.00;124.50;;;;;;;;5020261;28;51111;-42
2022/01/21 07:39:41;;;;;;;;;132.50;112.50;;;;;;;;5022006;28;51376;-43
2022/01/21 07:42:28;;;;;;;;;141.75;125.50;;;;;;;;5002221;28;51571;-43
2022/01/21 07:45:14;;;;;;;;;134.00;127.25;;;;;;;;5012900;28;51071;-43
2022/01/21 07:47:59;;;;;;;;;142.50;124.00;;;;;;;;5011768;28;51004;-43
2022/01/21 07:50:44;;;;;;;;;147.75;131.00;;;;;;;;5020066;28;51222;-43
2022/01/21 07:53:37;;;;;;;;;143.25;124.00;;;;;;;;5019871;28;51041;-45
2022/01/21 07:56:26;;;;;;;;;151.25;133.25;;;;;;;;5017215;28;51070;-43
2022/01/21 07:59:14;;;;;;;;;146.75;126.75;;;;;;;;5025794;28;51216;-44
2022/01/21 08:02:05;;;;;;;;;143.50;126.50;;;;;;;;5019360;28;51057;-45
2022/01/21 08:05:12;;;;;;;;;147.75;124.50;;;;;;;;5018904;28;51114;-44
2022/01/21 08:07:59;;;;;;;;;143.50;126.25;;;;;;;;5019011;28;50991;-44
2022/01/21 08:10:55;;;;;;;;;148.50;135.00;;;;;;;;5019125;28;51327;-44
2022/01/21 08:13:40;;;;;;;;;148.25;127.00;;;;;;;;5017747;28;51205;-46
2022/01/21 08:16:26;;;;;;;;;140.75;125.25;;;;;;;;5013386;28;51290;-45
2022/01/21 08:19:21;;;;;;;;;145.25;128.75;;;;;;;;5014758;28;51216;-44
2022/01/21 08:22:06;;;;;;;;;148.25;129.25;;;;;;;;5011109;28;51543;-46
2022/01/21 08:24:52;;;;;;;;;122.50;104.50;;;;;;;;5016929;28;51141;-46
2022/01/21 08:27:37;;;;;;;;;146.75;132.00;;;;;;;;5017479;28;51117;-45
2022/01/21 08:30:36;;;;;;;;;133.25;123.50;;;;;;;;5018843;28;51216;-46
2022/01/21 08:33:41;;;;;;;;;133.00;118.50;;;;;;;;5018032;28;51248;-43
2022/01/21 08:36:27;;;;;;;;;136.25;124.75;;;;;;;;5017741;28;51185;-45
2022/01/21 08:39:17;;;;;;;;;145.25;128.75;;;;;;;;5017920;28;51237;-45
2022/01/21 08:42:06;;;;;;;;;122.50;108.00;;;;;;;;5017358;28;51102;-44
2022/01/21 08:45:11;;;;;;;;;131.00;115.75;;;;;;;;5017537;28;51256;-44
2022/01/21 08:48:21;;;;;;;;;135.50;124.00;;;;;;;;5016093;28;51116;-44
2022/01/21 08:51:23;;;;;;;;;122.00;113.00;;;;;;;;5018364;28;51270;-44
2022/01/21 08:54:11;;;;;;;;;137.75;124.75;;;;;;;;5018255;28;51189;-45
2022/01/21 08:57:20;;;;;;;;;133.50;120.75;;;;;;;;5018551;28;51023;-45
2022/01/21 09:00:24;;;;;;;;;124.25;113.75;;;;;;;;5016673;28;51382;-45
2022/01/21 09:03:09;;;;;;;;;111.75;105.00;;;;;;;;5017668;28;51518;-44
2022/01/21 09:05:53;;;;;;;;;135.50;119.25;;;;;;;;5017289;28;51589;-45
2022/01/21 09:08:41;;;;;;;;;129.00;113.00;;;;;;;;5017553;28;52151;-45
2022/01/21 09:11:29;;;;;;;;;120.75;111.00;;;;;;;;5017869;28;51049;-45
2022/01/21 09:14:26;;;;;;;;;130.00;113.00;;;;;;;;5017118;28;51521;-47
2022/01/21 09:17:11;;;;;;;;;126.50;110.25;;;;;;;;5023280;28;51191;-47
2022/01/21 09:19:55;;;;;;;;;130.75;116.75;;;;;;;;5014491;28;51552;-48
2022/01/21 09:22:43;;;;;;;;;117.25;103.75;;;;;;;;5022154;28;51127;-44
2022/01/21 09:25:28;;;;;;;;;113.00;102.25;;;;;;;;5021606;28;51357;-44
2022/01/21 09:28:28;;;;;;;;;107.25;94.50;;;;;;;;5022849;28;51192;-45
2022/01/21 09:31:14;;;;;;;;;114.50;103.25;;;;;;;;5022773;28;51473;-44
2022/01/21 09:33:58;;;;;;;;;106.00;94.75;;;;;;;;5021013;28;51562;-45
2022/01/21 09:36:46;;;;;;;;;113.25;99.00;;;;;;;;5019545;28;51140;-45
2022/01/21 09:40:05;;;;;;;;;105.75;92.50;;;;;;;;5021721;28;51175;-45
2022/01/21 09:42:52;;;;;;;;;101.00;91.50;;;;;;;;5021074;28;51524;-46
2022/01/21 09:45:43;;;;;;;;;96.25;79.00;;;;;;;;5020642;28;51152;-46
2022/01/21 09:49:05;;;;;;;;;90.50;84.00;;;;;;;;5007412;28;51348;-46
2022/01/21 09:51:50;;;;;;;;;97.25;84.75;;;;;;;;5020369;28;51164;-45
2022/01/21 09:54:37;;;;;;;;;87.75;85.00;;;;;;;;5020723;28;51492;-45
2022/01/21 09:57:26;;;;;;;;;96.50;87.25;;;;;;;;5015221;28;52464;-45
2022/01/21 10:00:31;;;;;;;;;89.25;77.75;;;;;;;;5020684;28;51545;-46
2022/01/21 10:03:22;;;;;;;;;98.00;91.00;;;;;;;;5018117;28;51137;-46
2022/01/21 10:06:35;;;;;;;;;88.00;80.75;;;;;;;;5005236;28;51205;-45
2022/01/21 10:09:22;;;;;;;;;70.75;60.25;;;;;;;;5020020;28;51138;-45
2022/01/21 10:12:09;;;;;;;;;87.00;77.00;;;;;;;;5019970;28;51457;-45
2022/01/21 10:15:03;;;;;;;;;91.25;81.25;;;;;;;;5020683;28;51163;-45
2022/01/21 10:18:00;;;;;;;;;93.25;82.50;;;;;;;;5023947;28;51497;-48
2022/01/21 10:21:05;;;;;;;;;86.75;77.25;;;;;;;;5017370;28;51218;-45
2022/01/21 10:24:04;;;;;;;;;78.50;70.25;;;;;;;;5021354;28;51456;-45
2022/01/21 10:26:52;;;;;;;;;76.00;73.75;;;;;;;;5017722;28;51305;-44
2022/01/21 10:29:40;;;;;;;;;86.00;74.25;;;;;;;;5020248;28;51205;-44
2022/01/21 10:32:40;;;;;;;;;91.00;77.75;;;;;;;;5020795;28;51013;-45
2022/01/21 10:35:47;;;;;;;;;84.50;76.00;;;;;;;;5020401;28;51192;-46
2022/01/21 10:38:38;;;;;;;;;83.75;73.00;;;;;;;;5020562;28;51192;-50
2022/01/21 10:41:29;;;;;;;;;80.25;69.75;;;;;;;;5009021;28;51200;-47
2022/01/21 10:44:30;;;;;;;;;72.00;63.00;;;;;;;;5021207;28;51178;-44
2022/01/21 10:47:15;;;;;;;;;73.75;58.00;;;;;;;;5017396;28;51244;-45
2022/01/21 10:50:05;;;;;;;;;83.50;71.25;;;;;;;;5019646;28;51106;-48
2022/01/21 10:52:57;;;;;;;;;80.25;69.00;;;;;;;;5020475;28;51143;-42
2022/01/21 10:55:42;;;;;;;;;79.75;68.25;;;;;;;;5022400;28;51220;-42
2022/01/21 10:58:39;;;;;;;;;83.50;74.00;;;;;;;;5019923;28;51086;-42
2022/01/21 11:01:28;;;;;;;;;78.00;67.00;;;;;;;;5017481;28;51241;-44
2022/01/21 11:04:25;;;;;;;;;73.50;65.75;;;;;;;;5019906;28;51213;-42
2022/01/21 11:07:20;;;;;;;;;77.50;64.75;;;;;;;;5019897;28;51249;-42
2022/01/21 11:10:06;;;;;;;;;74.25;63.75;;;;;;;;4996592;28;51196;-43
2022/01/21 11:12:52;;;;;;;;;74.50;67.75;;;;;;;;5019513;28;51398;-51
2022/01/21 11:15:46;;;;;;;;;62.50;50.00;;;;;;;;5019327;28;51172;-47
2022/01/21 11:18:33;;;;;;;;;72.25;63.25;;;;;;;;5006732;28;51219;-42
2022/01/21 11:21:20;;;;;;;;;74.00;63.75;;;;;;;;5015219;28;51297;-45
2022/01/21 11:24:06;;;;;;;;;89.50;76.50;;;;;;;;5018662;28;51148;-42
2022/01/21 11:27:09;;;;;;;;;75.50;64.00;;;;;;;;5007206;28;51518;-42
2022/01/21 11:30:15;;;;;;;;;80.75;65.00;;;;;;;;5018395;28;51156;-43
2022/01/21 11:33:09;;;;;;;;;72.75;57.50;;;;;;;;5017978;28;51125;-49
2022/01/21 11:36:06;;;;;;;;;72.50;60.75;;;;;;;;5018578;28;51619;-53
2022/01/21 11:38:55;;;;;;;;;73.75;58.25;;;;;;;;5019106;28;51042;-42
2022/01/21 11:41:42;;;;;;;;;70.50;54.00;;;;;;;;5017252;28;51554;-46
2022/01/21 11:44:29;;;;;;;;;70.75;53.25;;;;;;;;5018407;28;51074;-44
2022/01/21 11:47:27;;;;;;;;;69.50;54.25;;;;;;;;5021659;28;51151;-45
2022/01/21 11:50:13;;;;;;;;;67.75;53.75;;;;;;;;5017341;28;51365;-45
2022/01/21 11:53:05;;;;;;;;;71.25;55.25;;;;;;;;5020887;28;51582;-49
2022/01/21 11:55:51;;;;;;;;;73.25;56.50;;;;;;;;5017787;28;51192;-45
2022/01/21 11:58:36;;;;;;;;;75.50;58.75;;;;;;;;5018489;28;51138;-50
2022/01/21 12:01:47;;;;;;;;;71.50;57.00;;;;;;;;5018496;28;51284;-53
2022/01/21 12:04:59;;;;;;;;;67.75;56.50;;;;;;;;5018701;28;51145;-47
2022/01/21 12:07:48;;;;;;;;;64.25;46.50;;;;;;;;5019769;28;51744;-42
2022/01/21 12:10:37;;;;;;;;;66.75;50.75;;;;;;;;5018641;28;51096;-43
2022/01/21 12:13:30;;;;;;;;;74.00;61.25;;;;;;;;5016395;28;51096;-46
2022/01/21 12:16:23;;;;;;;;;71.75;52.75;;;;;;;;5019305;28;51438;-44
2022/01/21 12:19:26;;;;;;;;;72.75;52.25;;;;;;;;5017237;28;51065;-48
2022/01/21 12:22:19;;;;;;;;;70.50;53.75;;;;;;;;5018087;28;51165;-45
2022/01/21 12:25:06;;;;;;;;;72.50;56.75;;;;;;;;5017928;28;51013;-41
2022/01/21 12:28:12;;;;;;;;;76.00;62.00;;;;;;;;5017135;28;51133;-42
2022/01/21 12:30:57;;;;;;;;;74.00;57.00;;;;;;;;5011110;28;52528;-43
2022/01/21 12:34:01;;;;;;;;;72.75;54.50;;;;;;;;5017770;28;51429;-45
2022/01/21 12:36:54;;;;;;;;;69.00;54.25;;;;;;;;5016171;28;51149;-46
2022/01/21 12:39:48;;;;;;;;;68.25;58.25;;;;;;;;5018237;28;51133;-46
2022/01/21 12:42:53;;;;;;;;;71.25;56.75;;;;;;;;5022056;28;51546;-45
2022/01/21 12:45:46;;;;;;;;;63.75;52.25;;;;;;;;5018974;28;51534;-43
2022/01/21 12:48:34;;;;;;;;;74.00;59.75;;;;;;;;5018415;28;51198;-44
2022/01/21 12:51:34;;;;;;;;;73.75;59.00;;;;;;;;5017130;28;51175;-43
2022/01/21 12:57:54;;;;;;;;;75.00;61.50;;;;;;;;4918472;28;51208;-41
2022/01/21 13:00:40;;;;;;;;;75.00;61.25;;;;;;;;4977452;28;51538;-43
2022/01/21 13:03:28;;;;;;;;;71.50;58.75;;;;;;;;5018992;28;51378;-41
2022/01/21 13:06:25;;;;;;;;;73.75;63.00;;;;;;;;5012388;28;51939;-40
2022/01/21 13:09:29;;;;;;;;;66.00;49.75;;;;;;;;5013976;28;51224;-41
2022/01/21 13:12:16;;;;;;;;;83.25;69.00;;;;;;;;5017663;28;51505;-41
2022/01/21 13:15:02;;;;;;;;;68.50;57.00;;;;;;;;5017545;28;51579;-41
2022/01/21 13:17:47;;;;;;;;;74.75;60.50;;;;;;;;5012959;28;51349;-40
2022/01/21 13:20:53;;;;;;;;;74.75;61.00;;;;;;;;5016891;28;51194;-41
2022/01/21 13:24:02;;;;;;;;;73.75;63.25;;;;;;;;5013383;28;51224;-41
2022/01/21 13:26:58;;;;;;;;;72.50;56.25;;;;;;;;5018538;28;51494;-40
2022/01/21 13:30:11;;;;;;;;;74.50;57.75;;;;;;;;5013245;28;51059;-41
2022/01/21 13:33:09;;;;;;;;;63.00;48.50;;;;;;;;5013859;28;52087;-40
2022/01/21 13:35:54;;;;;;;;;76.75;67.50;;;;;;;;5017082;28;51181;-41
2022/01/21 13:38:41;;;;;;;;;75.75;61.50;;;;;;;;5016389;28;51217;-41
2022/01/21 13:41:34;;;;;;;;;74.50;63.25;;;;;;;;5017415;28;51316;-40
2022/01/21 13:44:24;;;;;;;;;79.75;70.25;;;;;;;;5017794;28;51371;-41
2022/01/21 13:47:28;;;;;;;;;78.00;67.50;;;;;;;;5016514;28;51262;-40
2022/01/21 13:50:31;;;;;;;;;76.75;71.00;;;;;;;;5016044;28;51341;-41
2022/01/21 13:53:15;;;;;;;;;71.50;59.50;;;;;;;;5017664;28;51394;-41
2022/01/21 13:56:01;;;;;;;;;73.50;53.50;;;;;;;;5015826;28;51311;-41
2022/01/21 13:58:45;;;;;;;;;22.25;21.00;;;;;;;;5017424;28;51189;-41
2022/01/21 14:01:31;;;;;;;;;70.25;56.00;;;;;;;;5016525;28;51237;-41
2022/01/21 14:04:18;;;;;;;;;72.25;57.50;;;;;;;;5017412;28;51336;-41
2022/01/21 14:07:03;;;;;;;;;68.50;52.75;;;;;;;;5020350;28;51280;-41
2022/01/21 14:10:07;;;;;;;;;73.25;56.75;;;;;;;;5018199;28;52768;-40
2022/01/21 14:13:08;;;;;;;;;71.50;56.50;;;;;;;;5019991;28;51135;-40
2022/01/21 14:15:59;;;;;;;;;74.00;55.75;;;;;;;;5019413;28;51441;-41
2022/01/21 14:18:47;;;;;;;;;72.75;57.00;;;;;;;;5019326;28;51687;-42
2022/01/21 14:21:36;;;;;;;;;74.00;57.75;;;;;;;;5016866;28;50937;-41
2022/01/21 14:24:25;;;;;;;;;71.00;56.75;;;;;;;;5021819;28;51438;-41
2022/01/21 14:27:17;;;;;;;;;71.00;55.25;;;;;;;;5019390;28;51336;-41
2022/01/21 14:30:23;;;;;;;;;71.25;54.50;;;;;;;;5021094;28;51237;-41
2022/01/21 14:33:08;;;;;;;;;69.00;51.25;;;;;;;;5017595;28;51177;-41
2022/01/21 14:35:53;;;;;;;;;65.25;49.75;;;;;;;;5021345;28;51161;-40
2022/01/21 14:38:38;;;;;;;;;69.25;49.75;;;;;;;;5018983;28;51138;-41
2022/01/21 14:41:25;;;;;;;;;64.50;50.25;;;;;;;;5022346;28;51156;-42
2022/01/21 14:44:13;;;;;;;;;66.25;50.50;;;;;;;;5020181;28;51614;-41
2022/01/21 14:47:16;;;;;;;;;70.00;51.75;;;;;;;;5022194;28;51373;-41
2022/01/21 14:50:06;;;;;;;;;67.75;53.75;;;;;;;;5024039;28;51545;-41
2022/01/21 14:53:07;;;;;;;;;65.50;52.25;;;;;;;;5005060;28;51061;-41
2022/01/21 14:55:52;;;;;;;;;69.50;51.50;;;;;;;;5006125;28;51551;-42
2022/01/21 14:58:41;;;;;;;;;71.25;56.25;;;;;;;;5008753;28;51696;-41
2022/01/21 15:01:26;;;;;;;;;69.00;53.00;;;;;;;;5023409;28;51177;-41
2022/01/21 15:04:14;;;;;;;;;69.50;51.75;;;;;;;;5020014;28;51133;-41
2022/01/21 15:07:13;;;;;;;;;67.00;51.25;;;;;;;;5020535;28;51548;-41
2022/01/21 15:10:16;;;;;;;;;62.25;47.50;;;;;;;;5019467;28;51658;-41
2022/01/21 15:16:26;;;;;;;;;67.75;51.00;;;;;;;;5015023;28;51126;-42
2022/01/21 15:19:13;;;;;;;;;69.00;52.75;;;;;;;;5022359;28;51226;-41
2022/01/21 15:21:59;;;;;;;;;71.75;57.00;;;;;;;;5022762;28;51465;-41
2022/01/21 15:24:50;;;;;;;;;71.75;56.25;;;;;;;;5018024;28;51157;-41
2022/01/21 15:27:36;;;;;;;;;72.50;60.25;;;;;;;;4989545;28;51682;-41
2022/01/21 15:30:23;;;;;;;;;72.25;57.25;;;;;;;;5003151;28;51564;-42
2022/01/21 15:33:07;;;;;;;;;75.00;60.25;;;;;;;;5004440;28;51111;-41
2022/01/21 15:35:53;;;;;;;;;72.50;58.75;;;;;;;;5018177;28;51478;-40
2022/01/21 15:38:59;;;;;;;;;69.00;53.00;;;;;;;;5004990;28;51101;-41
2022/01/21 15:41:45;;;;;;;;;72.00;53.50;;;;;;;;5020858;28;52475;-42
2022/01/21 15:44:47;;;;;;;;;73.75;59.00;;;;;;;;5018130;28;51160;-41
2022/01/21 15:47:42;;;;;;;;;71.50;56.75;;;;;;;;5019832;28;51101;-41
2022/01/21 15:50:27;;;;;;;;;71.00;57.25;;;;;;;;5022501;28;51153;-41
2022/01/21 15:53:13;;;;;;;;;75.25;63.50;;;;;;;;5019582;28;51125;-41
2022/01/21 15:55:58;;;;;;;;;71.50;60.25;;;;;;;;5020893;28;51427;-40
2022/01/21 15:59:23;;;;;;;;;74.75;61.25;;;;;;;;5018374;28;51185;-41
2022/01/21 16:02:13;;;;;;;;;73.25;55.75;;;;;;;;5019397;28;51089;-40
2022/01/21 16:04:58;;;;;;;;;68.50;53.50;;;;;;;;5019089;28;51146;-41
2022/01/21 16:07:46;;;;;;;;;78.75;62.75;;;;;;;;5018909;28;51467;-40
2022/01/21 16:10:31;;;;;;;;;73.50;58.75;;;;;;;;5003610;28;51359;-41
2022/01/21 16:13:21;;;;;;;;;73.25;58.25;;;;;;;;5015521;28;51548;-41
2022/01/21 16:16:07;;;;;;;;;68.50;54.75;;;;;;;;5016676;28;51271;-41
2022/01/21 16:18:55;;;;;;;;;74.00;63.75;;;;;;;;5017930;28;51607;-41
2022/01/21 16:21:41;;;;;;;;;72.50;57.25;;;;;;;;5018320;28;51140;-41
2022/01/21 16:24:27;;;;;;;;;76.75;65.50;;;;;;;;5017302;28;51193;-41
2022/01/21 16:27:14;;;;;;;;;77.00;62.75;;;;;;;;5014000;28;51276;-41
2022/01/21 16:30:18;;;;;;;;;73.75;59.25;;;;;;;;5019532;28;51190;-42
2022/01/21 16:33:15;;;;;;;;;73.00;60.00;;;;;;;;5016995;28;51061;-42
2022/01/21 16:36:00;;;;;;;;;76.50;67.25;;;;;;;;5018266;28;51209;-41
2022/01/21 16:38:45;;;;;;;;;79.25;68.75;;;;;;;;5021836;28;51784;-40
2022/01/21 16:41:30;;;;;;;;;78.50;68.75;;;;;;;;5019183;28;51162;-41
2022/01/21 16:44:14;;;;;;;;;69.00;55.75;;;;;;;;5016927;28;51598;-41
2022/01/21 16:47:02;;;;;;;;;86.25;75.00;;;;;;;;5016403;28;51200;-41
2022/01/21 16:49:54;;;;;;;;;83.00;74.75;;;;;;;;5017025;28;51614;-42
2022/01/21 16:52:38;;;;;;;;;76.00;65.00;;;;;;;;5017050;28;51216;-42
2022/01/21 16:55:24;;;;;;;;;78.00;65.75;;;;;;;;5017499;28;51503;-42
2022/01/21 16:58:11;;;;;;;;;74.50;62.50;;;;;;;;5019280;28;51089;-41
2022/01/21 17:00:56;;;;;;;;;83.00;72.75;;;;;;;;5015658;28;51177;-41
2022/01/21 17:03:43;;;;;;;;;82.25;70.00;;;;;;;;5017368;28;51046;-41
2022/01/21 17:06:27;;;;;;;;;88.25;75.75;;;;;;;;5018263;28;51399;-41
2022/01/21 17:09:12;;;;;;;;;80.75;69.75;;;;;;;;5017326;28;51170;-41
2022/01/21 17:12:00;;;;;;;;;86.25;81.00;;;;;;;;5018682;28;51999;-41
2022/01/21 17:14:45;;;;;;;;;99.75;85.75;;;;;;;;5015698;28;52667;-41